Terminal Aerodrome Forecast
Issued by NWS Pocatello, ID

Home | Current Version | Previous Version | Text Only | Print | Product List | Glossary On
Versions: 1 2 3 4 5 6 7 8 9 10 11 12 13 14 15 16 17
220
FTUS45 KPIH 270314 AAB
TAFIDA
TAF AMD
KIDA 270314Z 2703/2724 21008KT P6SM -SHRA VCTS SCT060 BKN090CB
      TEMPO 2703/2704 VRB10G25KT 1SM TSRA OVC040CB
     FM270600 VRB06KT P6SM VCSH SCT080 BKN120
     FM271800 21008KT P6SM VCTS OVC100CB=

USA.gov is the U.S. government's official web portal to all federal, state and local government web resources and services.